Time;durP1;ratioP1;P1;durP2;ratioP2;P2;SDS_P1;SDS_P2;PMS_P1;PMS_P2;Temp;Humidity;BMP_temperature;BMP_pressure;BME280_temperature;BME280_humidity;BME280_pressure;Samples;Min_cycle;Max_cycle;Signal;HPM_P1;HPM_P2
2023/10/06 00:00:53;;;;;;;;;;;21.70;55.20;;;;;;5034023;28;19921;-71
2023/10/06 00:03:20;;;;;;;;;;;21.70;55.30;;;;;;5033660;28;19925;-71
2023/10/06 00:05:48;;;;;;;;;;;21.70;55.20;;;;;;5039814;28;19921;-71
2023/10/06 00:08:17;;;;;;;;;;;21.70;55.30;;;;;;5023594;28;19921;-71
2023/10/06 00:10:50;;;;;;;;;;;21.70;55.20;;;;;;5032263;28;19944;-71
2023/10/06 00:13:19;;;;;;;;;;;21.70;55.20;;;;;;5036224;28;20020;-71
2023/10/06 00:15:46;;;;;;;;;;;21.70;55.30;;;;;;5034174;28;19928;-71
2023/10/06 00:18:16;;;;;;;;;;;21.70;55.20;;;;;;5036696;28;20313;-71
2023/10/06 00:20:48;;;;;;;;;;;21.70;55.30;;;;;;5033543;28;20004;-71
2023/10/06 00:23:21;;;;;;;;;;;21.70;55.30;;;;;;5034558;28;20035;-71
2023/10/06 00:25:51;;;;;;;;;;;21.70;55.30;;;;;;5019101;28;19976;-71
2023/10/06 00:28:19;;;;;;;;;;;21.70;55.30;;;;;;5036036;28;19921;-71
2023/10/06 00:30:47;;;;;;;;;;;21.70;55.30;;;;;;5035679;28;20004;-71
2023/10/06 00:33:14;;;;;;;;;;;21.60;55.20;;;;;;5033154;28;19921;-71
2023/10/06 00:35:42;;;;;;;;;;;21.70;55.20;;;;;;5032016;28;19921;-71
2023/10/06 00:38:16;;;;;;;;;;;21.70;55.30;;;;;;5024569;28;19928;-71
2023/10/06 00:40:46;;;;;;;;;;;21.70;55.30;;;;;;5020220;28;19968;-71
2023/10/06 00:43:20;;;;;;;;;;;21.70;55.30;;;;;;5048206;28;20266;-71
2023/10/06 00:45:48;;;;;;;;;;;21.70;55.20;;;;;;5018263;28;19927;-72
2023/10/06 00:48:15;;;;;;;;;;;21.70;55.30;;;;;;5017240;28;19921;-71
2023/10/06 00:50:42;;;;;;;;;;;21.70;55.30;;;;;;5036070;28;19927;-71
2023/10/06 00:53:10;;;;;;;;;;;21.70;55.30;;;;;;5033030;28;19921;-71
2023/10/06 00:55:39;;;;;;;;;;;21.70;55.20;;;;;;5034303;28;19975;-71
2023/10/06 00:58:09;;;;;;;;;;;21.70;55.30;;;;;;5028594;28;19999;-71
2023/10/06 01:00:38;;;;;;;;;;;21.70;55.30;;;;;;5019948;28;19964;-71
2023/10/06 01:03:10;;;;;;;;;;;21.60;55.20;;;;;;5032516;28;19921;-71
2023/10/06 01:05:38;;;;;;;;;;;21.70;55.30;;;;;;5022736;28;19922;-71
2023/10/06 01:08:05;;;;;;;;;;;21.70;55.30;;;;;;5030687;28;19967;-71
2023/10/06 01:10:34;;;;;;;;;;;21.70;55.30;;;;;;5021005;28;20366;-71
2023/10/06 01:13:11;;;;;;;;;;;21.70;55.30;;;;;;5011967;28;19921;-71
2023/10/06 01:15:45;;;;;;;;;;;21.60;55.20;;;;;;5015136;28;19921;-70
2023/10/06 01:18:19;;;;;;;;;;;21.70;55.20;;;;;;5014528;28;19921;-71
2023/10/06 01:20:48;;;;;;;;;;;21.70;55.20;;;;;;5014991;28;19922;-72
2023/10/06 01:23:21;;;;;;;;;;;21.70;55.20;;;;;;5014757;28;19987;-71
2023/10/06 01:25:50;;;;;;;;;;;21.70;55.20;;;;;;5013344;28;20023;-71
2023/10/06 01:28:17;;;;;;;;;;;21.70;55.20;;;;;;5026435;28;19921;-72
2023/10/06 01:30:44;;;;;;;;;;;21.60;55.10;;;;;;5032824;28;19921;-71
2023/10/06 01:33:12;;;;;;;;;;;21.70;55.20;;;;;;5023539;28;19926;-71
2023/10/06 01:35:42;;;;;;;;;;;21.60;55.10;;;;;;5012047;28;19971;-71
2023/10/06 01:38:14;;;;;;;;;;;21.70;55.10;;;;;;5020886;28;19968;-71
2023/10/06 01:40:44;;;;;;;;;;;21.60;55.10;;;;;;5026070;28;19932;-71
2023/10/06 01:43:14;;;;;;;;;;;21.60;55.10;;;;;;5032434;28;19928;-71
2023/10/06 01:45:44;;;;;;;;;;;21.70;55.10;;;;;;5012225;28;19968;-71
2023/10/06 01:48:23;;;;;;;;;;;21.60;55.00;;;;;;5012670;28;20012;-71
2023/10/06 01:50:50;;;;;;;;;;;21.60;55.00;;;;;;5014394;28;19921;-71
2023/10/06 01:53:18;;;;;;;;;;;21.60;55.00;;;;;;5026106;28;19921;-71
2023/10/06 01:55:49;;;;;;;;;;;21.70;55.10;;;;;;5030151;28;19921;-71
2023/10/06 01:58:16;;;;;;;;;;;21.60;55.00;;;;;;5022691;28;19921;-71
2023/10/06 02:00:45;;;;;;;;;;;21.60;55.00;;;;;;5022719;28;19928;-71
2023/10/06 02:03:13;;;;;;;;;;;21.60;55.00;;;;;;5017295;28;19925;-71
2023/10/06 02:05:39;;;;;;;;;;;21.60;54.90;;;;;;5035191;28;19975;-71
2023/10/06 02:08:09;;;;;;;;;;;21.60;54.90;;;;;;5035139;28;20001;-71
2023/10/06 02:10:36;;;;;;;;;;;21.60;54.90;;;;;;5030890;28;20011;-71
2023/10/06 02:13:06;;;;;;;;;;;21.60;54.90;;;;;;5032768;28;20282;-71
2023/10/06 02:15:33;;;;;;;;;;;21.60;54.90;;;;;;5049720;28;19937;-70
2023/10/06 02:17:59;;;;;;;;;;;21.60;54.90;;;;;;5032769;28;19921;-71
2023/10/06 02:20:34;;;;;;;;;;;21.60;54.90;;;;;;5029913;28;20023;-71
2023/10/06 02:23:03;;;;;;;;;;;21.60;55.40;;;;;;5022573;28;19932;-71
2023/10/06 02:25:31;;;;;;;;;;;21.60;54.80;;;;;;5022001;28;19921;-71
2023/10/06 02:27:59;;;;;;;;;;;21.60;54.80;;;;;;5017784;28;19925;-71
2023/10/06 02:30:37;;;;;;;;;;;21.60;54.80;;;;;;5020057;28;19921;-71
2023/10/06 02:33:05;;;;;;;;;;;21.60;54.80;;;;;;5035343;28;19921;-71
2023/10/06 02:35:31;;;;;;;;;;;21.60;54.80;;;;;;5036766;28;19964;-77
2023/10/06 02:37:58;;;;;;;;;;;21.60;54.80;;;;;;5038375;28;19921;-72
2023/10/06 02:40:31;;;;;;;;;;;21.60;54.70;;;;;;5018259;28;19976;-72
2023/10/06 02:43:00;;;;;;;;;;;21.60;54.70;;;;;;5017714;28;19921;-71
2023/10/06 02:45:37;;;;;;;;;;;21.60;54.70;;;;;;5016697;28;19921;-71
2023/10/06 02:48:14;;;;;;;;;;;21.60;54.60;;;;;;5034919;28;19924;-69
2023/10/06 02:50:44;;;;;;;;;;;21.60;54.60;;;;;;5026302;28;19921;-71
2023/10/06 02:53:13;;;;;;;;;;;21.60;54.60;;;;;;5018065;28;19928;-71
2023/10/06 02:55:43;;;;;;;;;;;21.60;54.60;;;;;;5020752;28;19921;-71
2023/10/06 02:58:16;;;;;;;;;;;21.60;54.50;;;;;;5026284;28;19928;-71
2023/10/06 03:00:50;;;;;;;;;;;21.60;55.10;;;;;;5029243;28;19921;-71
2023/10/06 03:03:18;;;;;;;;;;;21.60;54.50;;;;;;5015991;28;19928;-71
2023/10/06 03:05:49;;;;;;;;;;;21.60;54.50;;;;;;5017437;28;19921;-71
2023/10/06 03:08:20;;;;;;;;;;;21.60;54.40;;;;;;5018098;28;19969;-71
2023/10/06 03:10:48;;;;;;;;;;;21.60;54.40;;;;;;5018818;28;19944;-71
2023/10/06 03:13:16;;;;;;;;;;;21.60;54.40;;;;;;5043547;28;19922;-72
2023/10/06 03:15:46;;;;;;;;;;;21.60;54.40;;;;;;5029836;28;19921;-71
2023/10/06 03:18:14;;;;;;;;;;;21.60;54.40;;;;;;5029853;28;19971;-73
2023/10/06 03:20:46;;;;;;;;;;;21.60;54.40;;;;;;5029696;28;19921;-71
2023/10/06 03:23:24;;;;;;;;;;;21.60;54.30;;;;;;5025816;28;19922;-76
2023/10/06 03:25:53;;;;;;;;;;;21.60;54.30;;;;;;5034345;28;20003;-71
2023/10/06 03:28:20;;;;;;;;;;;21.60;54.30;;;;;;5030208;28;19963;-71
2023/10/06 03:30:49;;;;;;;;;;;21.60;54.30;;;;;;5038598;28;19940;-71
2023/10/06 03:33:18;;;;;;;;;;;21.60;54.30;;;;;;5033390;28;19921;-72
2023/10/06 03:35:47;;;;;;;;;;;21.60;54.30;;;;;;5027569;28;19921;-71
2023/10/06 03:41:09;;;;;;;;;;;21.60;54.20;;;;;;5041472;28;19921;-71
2023/10/06 03:43:40;;;;;;;;;;;21.60;54.20;;;;;;5022121;28;19934;-72
2023/10/06 03:46:09;;;;;;;;;;;21.60;54.20;;;;;;5019422;28;19921;-72
2023/10/06 03:48:37;;;;;;;;;;;21.60;54.20;;;;;;5031429;28;19921;-72
2023/10/06 03:51:05;;;;;;;;;;;21.60;54.20;;;;;;5032001;28;19921;-72
2023/10/06 03:53:32;;;;;;;;;;;21.60;54.10;;;;;;5026147;28;19925;-72
2023/10/06 03:55:59;;;;;;;;;;;21.60;54.10;;;;;;5031245;28;19921;-71
2023/10/06 03:58:28;;;;;;;;;;;21.60;54.10;;;;;;5034995;28;19964;-72
2023/10/06 04:00:55;;;;;;;;;;;21.50;54.10;;;;;;5017899;28;19969;-71
2023/10/06 04:03:23;;;;;;;;;;;21.50;54.00;;;;;;5046289;28;19928;-71
2023/10/06 04:05:50;;;;;;;;;;;21.60;54.10;;;;;;5049472;28;19921;-72
2023/10/06 04:08:17;;;;;;;;;;;21.60;54.10;;;;;;5024653;28;19929;-72
2023/10/06 04:10:45;;;;;;;;;;;21.60;54.10;;;;;;5015991;28;19921;-71
2023/10/06 04:13:12;;;;;;;;;;;21.60;54.10;;;;;;5016909;28;19976;-71
2023/10/06 04:15:39;;;;;;;;;;;21.60;54.10;;;;;;5027186;28;19928;-71
2023/10/06 04:18:10;;;;;;;;;;;21.60;54.10;;;;;;5025685;28;20429;-71
2023/10/06 04:20:39;;;;;;;;;;;21.60;54.00;;;;;;5031376;28;19922;-72
2023/10/06 04:23:07;;;;;;;;;;;21.60;54.00;;;;;;5032366;28;19927;-71
2023/10/06 04:25:37;;;;;;;;;;;21.60;54.00;;;;;;5029470;28;19926;-72
2023/10/06 04:28:05;;;;;;;;;;;21.60;53.90;;;;;;5022677;28;19921;-71
2023/10/06 04:30:34;;;;;;;;;;;21.60;53.90;;;;;;5021544;28;19925;-71
2023/10/06 04:33:01;;;;;;;;;;;21.50;53.80;;;;;;5020615;28;19921;-71
2023/10/06 04:35:29;;;;;;;;;;;21.60;53.90;;;;;;5014146;28;20315;-70
2023/10/06 04:37:59;;;;;;;;;;;21.60;53.90;;;;;;5006246;28;19963;-71
2023/10/06 04:40:27;;;;;;;;;;;21.50;53.80;;;;;;5036144;28;19928;-72
2023/10/06 04:42:54;;;;;;;;;;;21.50;53.80;;;;;;5016469;28;19925;-71
2023/10/06 04:45:20;;;;;;;;;;;21.50;53.80;;;;;;5031757;28;19928;-71
2023/10/06 04:47:47;;;;;;;;;;;21.50;53.80;;;;;;5013000;28;19921;-72
2023/10/06 04:50:16;;;;;;;;;;;21.50;53.80;;;;;;5018507;28;19939;-72
2023/10/06 04:52:46;;;;;;;;;;;21.50;53.70;;;;;;5033189;28;19978;-71
2023/10/06 04:55:14;;;;;;;;;;;21.50;53.70;;;;;;5032341;28;19925;-71
2023/10/06 04:57:41;;;;;;;;;;;21.50;53.70;;;;;;5009489;28;19921;-71
2023/10/06 05:00:14;;;;;;;;;;;21.50;53.70;;;;;;5019900;28;19921;-71
2023/10/06 05:02:43;;;;;;;;;;;21.50;53.70;;;;;;5021964;28;19921;-71
2023/10/06 05:05:12;;;;;;;;;;;21.50;53.70;;;;;;5024192;28;19921;-71
2023/10/06 05:07:39;;;;;;;;;;;21.50;53.70;;;;;;5019248;28;19922;-71
2023/10/06 05:10:08;;;;;;;;;;;21.50;53.70;;;;;;5016026;28;20028;-72
2023/10/06 05:12:37;;;;;;;;;;;21.50;53.70;;;;;;5046909;28;19921;-72
2023/10/06 05:15:07;;;;;;;;;;;21.50;53.70;;;;;;5031995;28;19921;-71
2023/10/06 05:17:34;;;;;;;;;;;21.50;53.70;;;;;;5033054;28;19921;-71
2023/10/06 05:20:00;;;;;;;;;;;21.50;53.70;;;;;;5031513;28;19921;-70
2023/10/06 05:22:27;;;;;;;;;;;21.50;53.70;;;;;;5045270;28;19972;-70
2023/10/06 05:24:54;;;;;;;;;;;21.50;54.30;;;;;;5021741;28;19951;-70
2023/10/06 05:27:22;;;;;;;;;;;21.50;53.70;;;;;;5044615;28;19921;-70
2023/10/06 05:29:51;;;;;;;;;;;21.50;53.70;;;;;;5019333;28;19922;-70
2023/10/06 05:32:18;;;;;;;;;;;21.50;53.70;;;;;;5027903;28;19921;-70
2023/10/06 05:34:45;;;;;;;;;;;21.50;53.70;;;;;;5033650;28;19928;-70
2023/10/06 05:37:13;;;;;;;;;;;21.50;53.70;;;;;;5013370;28;20955;-70
2023/10/06 05:39:41;;;;;;;;;;;21.50;53.70;;;;;;5033503;28;19937;-70
2023/10/06 05:42:10;;;;;;;;;;;21.50;53.70;;;;;;5034386;28;19972;-70
2023/10/06 05:44:37;;;;;;;;;;;21.50;53.70;;;;;;5024016;28;19992;-70
2023/10/06 05:47:08;;;;;;;;;;;21.50;53.60;;;;;;5029571;28;20007;-71
2023/10/06 05:49:35;;;;;;;;;;;21.50;53.60;;;;;;5012002;28;20370;-70
2023/10/06 05:52:03;;;;;;;;;;;21.50;53.60;;;;;;5022691;28;19928;-70
2023/10/06 05:54:30;;;;;;;;;;;21.50;53.60;;;;;;5017435;28;19953;-71
2023/10/06 05:56:57;;;;;;;;;;;21.50;53.60;;;;;;5035524;28;19921;-70
2023/10/06 05:59:25;;;;;;;;;;;21.50;53.60;;;;;;5031853;28;19936;-71
2023/10/06 06:02:00;;;;;;;;;;;21.50;53.60;;;;;;5028247;28;19936;-70
2023/10/06 06:04:30;;;;;;;;;;;21.50;53.60;;;;;;5018855;28;19920;-70
2023/10/06 06:06:57;;;;;;;;;;;21.50;53.60;;;;;;5032807;28;19921;-70
2023/10/06 06:09:24;;;;;;;;;;;21.50;53.50;;;;;;5029938;28;19960;-70
2023/10/06 06:11:51;;;;;;;;;;;21.50;53.50;;;;;;5036101;28;19923;-70
2023/10/06 06:14:20;;;;;;;;;;;21.50;53.50;;;;;;5022293;28;19921;-70
2023/10/06 06:16:47;;;;;;;;;;;21.50;53.50;;;;;;5031912;28;19921;-71
2023/10/06 06:19:13;;;;;;;;;;;21.50;53.50;;;;;;5030321;28;19932;-70
2023/10/06 06:21:42;;;;;;;;;;;21.50;54.10;;;;;;5031050;28;19925;-70
2023/10/06 06:24:09;;;;;;;;;;;21.50;53.50;;;;;;5014492;28;20324;-70
2023/10/06 06:26:37;;;;;;;;;;;21.50;53.50;;;;;;5020237;28;19921;-70
2023/10/06 06:29:09;;;;;;;;;;;21.50;53.50;;;;;;5032862;28;19925;-73
2023/10/06 06:31:37;;;;;;;;;;;21.50;53.50;;;;;;5036016;28;19954;-69
2023/10/06 06:34:04;;;;;;;;;;;21.50;53.50;;;;;;5009046;28;19925;-69
2023/10/06 06:36:32;;;;;;;;;;;21.50;53.60;;;;;;5027950;28;19922;-66
2023/10/06 06:39:00;;;;;;;;;;;21.50;53.50;;;;;;5030671;28;19983;-73
2023/10/06 06:41:27;;;;;;;;;;;21.50;53.50;;;;;;5031498;28;19921;-71
2023/10/06 06:43:58;;;;;;;;;;;21.50;53.60;;;;;;5045613;28;19925;-70
2023/10/06 06:46:26;;;;;;;;;;;21.50;53.60;;;;;;5031957;28;19921;-71
2023/10/06 06:48:53;;;;;;;;;;;21.50;53.60;;;;;;5037751;28;19921;-74
2023/10/06 06:51:22;;;;;;;;;;;21.50;53.60;;;;;;5031190;28;19928;-73
2023/10/06 06:53:49;;;;;;;;;;;21.50;53.60;;;;;;5030436;28;19959;-73
2023/10/06 06:56:19;;;;;;;;;;;21.60;53.60;;;;;;5033180;28;19925;-71
2023/10/06 06:58:46;;;;;;;;;;;21.60;53.60;;;;;;5035078;28;19927;-75
2023/10/06 07:01:14;;;;;;;;;;;21.60;53.60;;;;;;5012718;28;19987;-72
2023/10/06 07:03:41;;;;;;;;;;;21.60;53.70;;;;;;5022314;28;19957;-71
2023/10/06 07:06:11;;;;;;;;;;;21.60;53.70;;;;;;5025665;28;19955;-71
2023/10/06 07:08:38;;;;;;;;;;;21.60;53.70;;;;;;5041665;28;19950;-72
2023/10/06 07:11:07;;;;;;;;;;;21.60;53.80;;;;;;5013514;28;19976;-71
2023/10/06 07:13:36;;;;;;;;;;;21.70;54.50;;;;;;5036960;28;19932;-73
2023/10/06 07:16:09;;;;;;;;;;;21.70;53.90;;;;;;5035566;28;19958;-73
2023/10/06 07:18:36;;;;;;;;;;;21.70;53.90;;;;;;5042993;28;19929;-72
2023/10/06 07:21:07;;;;;;;;;;;21.70;54.50;;;;;;5035444;28;20007;-73
2023/10/06 07:23:36;;;;;;;;;;;21.70;53.90;;;;;;5034149;28;19921;-71
2023/10/06 07:26:03;;;;;;;;;;;21.80;54.00;;;;;;5035776;28;20020;-71
2023/10/06 07:28:31;;;;;;;;;;;21.80;53.90;;;;;;5052492;28;19927;-71
2023/10/06 07:30:59;;;;;;;;;;;21.80;54.00;;;;;;5056484;28;19924;-72
2023/10/06 07:33:26;;;;;;;;;;;21.80;54.00;;;;;;5055884;28;19924;-72
2023/10/06 07:35:53;;;;;;;;;;;21.80;54.00;;;;;;5056693;28;19944;-71
2023/10/06 07:38:20;;;;;;;;;;;21.90;54.10;;;;;;5056943;28;19921;-71
2023/10/06 07:40:47;;;;;;;;;;;21.90;54.00;;;;;;5056037;28;19927;-71
2023/10/06 07:43:15;;;;;;;;;;;21.90;54.10;;;;;;5056641;28;20111;-70
2023/10/06 07:45:42;;;;;;;;;;;21.90;54.00;;;;;;5056339;28;19927;-70
2023/10/06 07:48:10;;;;;;;;;;;21.90;54.00;;;;;;5056110;28;19927;-70
2023/10/06 07:50:37;;;;;;;;;;;21.90;54.00;;;;;;5056419;28;19920;-71
2023/10/06 07:53:04;;;;;;;;;;;21.90;54.00;;;;;;5056450;28;19964;-71
2023/10/06 07:55:31;;;;;;;;;;;21.90;54.00;;;;;;5056842;28;19921;-71
2023/10/06 07:57:58;;;;;;;;;;;22.00;54.10;;;;;;5056713;28;19963;-71
2023/10/06 08:00:29;;;;;;;;;;;22.00;54.70;;;;;;5054405;28;19921;-72
2023/10/06 08:02:55;;;;;;;;;;;22.00;54.10;;;;;;5072624;28;19921;-75
2023/10/06 08:05:24;;;;;;;;;;;22.00;54.10;;;;;;5056727;28;19966;-72
2023/10/06 08:07:52;;;;;;;;;;;22.00;54.00;;;;;;5056096;28;19921;-70
2023/10/06 08:10:19;;;;;;;;;;;22.00;54.00;;;;;;5056031;28;19943;-72
2023/10/06 08:12:46;;;;;;;;;;;22.00;54.00;;;;;;5055791;28;19944;-71
2023/10/06 08:15:17;;;;;;;;;;;22.00;54.00;;;;;;5056069;28;19927;-75
2023/10/06 08:17:45;;;;;;;;;;;22.00;54.00;;;;;;5055427;28;19921;-76
2023/10/06 08:20:12;;;;;;;;;;;22.00;54.00;;;;;;5056821;28;19920;-75
2023/10/06 08:22:41;;;;;;;;;;;22.00;53.90;;;;;;5055096;28;19921;-75
2023/10/06 08:25:09;;;;;;;;;;;22.00;53.90;;;;;;5054168;28;19928;-71
2023/10/06 08:27:35;;;;;;;;;;;22.00;53.90;;;;;;5055513;28;19925;-70
2023/10/06 08:30:07;;;;;;;;;;;22.00;53.90;;;;;;5055162;28;19921;-71
2023/10/06 08:32:34;;;;;;;;;;;22.00;53.90;;;;;;5055666;28;20350;-71
2023/10/06 08:35:01;;;;;;;;;;;22.00;53.90;;;;;;5055986;28;19927;-68
2023/10/06 08:37:27;;;;;;;;;;;22.00;53.90;;;;;;5055496;28;19921;-71
2023/10/06 08:39:56;;;;;;;;;;;22.10;54.00;;;;;;5054797;28;19921;-70
2023/10/06 08:42:22;;;;;;;;;;;22.10;54.00;;;;;;5071814;28;19921;-70
2023/10/06 08:44:49;;;;;;;;;;;22.10;54.00;;;;;;5055052;28;19920;-70
2023/10/06 08:47:16;;;;;;;;;;;22.10;54.00;;;;;;5071672;28;19921;-70
2023/10/06 08:49:46;;;;;;;;;;;22.10;54.00;;;;;;5071699;28;19967;-71
2023/10/06 08:52:13;;;;;;;;;;;22.10;53.90;;;;;;5071530;28;19927;-71
2023/10/06 08:54:40;;;;;;;;;;;22.10;54.00;;;;;;5055556;28;19921;-71
2023/10/06 08:57:11;;;;;;;;;;;22.10;54.00;;;;;;5055620;28;19925;-74
2023/10/06 08:59:39;;;;;;;;;;;22.10;54.00;;;;;;5071341;28;20012;-76
2023/10/06 09:02:07;;;;;;;;;;;22.10;54.00;;;;;;5054757;28;19948;-74
2023/10/06 09:04:34;;;;;;;;;;;22.10;54.00;;;;;;5071482;28;19921;-72
2023/10/06 09:07:08;;;;;;;;;;;22.10;54.00;;;;;;5072052;28;19927;-73
2023/10/06 09:09:36;;;;;;;;;;;22.20;54.10;;;;;;5054931;28;20024;-77
2023/10/06 09:12:03;;;;;;;;;;;22.20;54.00;;;;;;5040666;28;19921;-73
2023/10/06 09:14:32;;;;;;;;;;;22.10;54.00;;;;;;5034183;28;19957;-77
2023/10/06 09:17:01;;;;;;;;;;;22.20;54.00;;;;;;5034980;28;19921;-71
2023/10/06 09:19:29;;;;;;;;;;;22.10;54.00;;;;;;5035751;28;19927;-73
2023/10/06 09:22:06;;;;;;;;;;;22.10;54.00;;;;;;5034554;28;19925;-71
2023/10/06 09:24:33;;;;;;;;;;;22.20;54.00;;;;;;5034364;28;19921;-72
2023/10/06 09:27:01;;;;;;;;;;;22.20;54.00;;;;;;5034745;28;19928;-72
2023/10/06 09:29:32;;;;;;;;;;;22.20;54.00;;;;;;5035152;28;20016;-73
2023/10/06 09:32:00;;;;;;;;;;;22.20;54.00;;;;;;5034032;28;19921;-71
2023/10/06 09:34:27;;;;;;;;;;;22.20;54.00;;;;;;5034333;28;19922;-70
2023/10/06 09:36:54;;;;;;;;;;;22.20;54.00;;;;;;5033841;28;20283;-70
2023/10/06 09:39:29;;;;;;;;;;;22.30;54.70;;;;;;5034223;28;19921;-71
2023/10/06 09:41:56;;;;;;;;;;;22.30;54.10;;;;;;5018155;28;19975;-72
2023/10/06 09:44:23;;;;;;;;;;;22.20;54.10;;;;;;5034086;28;19921;-72
2023/10/06 09:46:53;;;;;;;;;;;22.30;54.10;;;;;;5034438;28;19921;-71
2023/10/06 09:49:21;;;;;;;;;;;22.20;54.00;;;;;;5033942;28;19935;-73
2023/10/06 09:51:48;;;;;;;;;;;22.30;54.10;;;;;;5033767;28;19951;-72
2023/10/06 09:54:15;;;;;;;;;;;22.30;54.20;;;;;;5034931;28;19921;-72
2023/10/06 09:56:42;;;;;;;;;;;22.30;54.20;;;;;;5034350;28;19921;-76
2023/10/06 09:59:12;;;;;;;;;;;22.30;54.10;;;;;;5034306;28;19928;-76
2023/10/06 10:01:42;;;;;;;;;;;22.30;54.20;;;;;;5033975;28;19921;-76
2023/10/06 10:04:11;;;;;;;;;;;22.30;54.10;;;;;;5034775;28;19921;-74
2023/10/06 10:06:42;;;;;;;;;;;22.30;54.10;;;;;;5031983;28;19928;-75
2023/10/06 10:09:09;;;;;;;;;;;22.30;54.20;;;;;;5034416;28;19921;-76
2023/10/06 10:11:39;;;;;;;;;;;22.30;54.20;;;;;;5033501;28;19992;-76
2023/10/06 10:14:15;;;;;;;;;;;22.30;54.20;;;;;;5033075;28;19956;-75
2023/10/06 10:16:52;;;;;;;;;;;22.30;54.10;;;;;;5034059;28;19921;-75
2023/10/06 10:19:22;;;;;;;;;;;22.30;54.10;;;;;;5033971;28;19925;-75
2023/10/06 10:21:49;;;;;;;;;;;22.30;54.10;;;;;;5033984;28;19929;-74
2023/10/06 10:24:18;;;;;;;;;;;22.30;54.10;;;;;;5033355;28;19988;-75
2023/10/06 10:26:47;;;;;;;;;;;22.30;54.10;;;;;;5033589;28;19925;-76
2023/10/06 10:29:30;;;;;;;;;;;22.30;54.10;;;;;;5033874;28;19971;-75
2023/10/06 10:32:13;;;;;;;;;;;22.30;54.10;;;;;;5033281;28;20321;-75
2023/10/06 10:35:03;;;;;;;;;;;22.30;54.10;;;;;;5033483;28;19921;-76
2023/10/06 10:37:32;;;;;;;;;;;22.30;54.10;;;;;;5022933;28;19928;-76
2023/10/06 10:39:59;;;;;;;;;;;22.30;54.10;;;;;;5033102;28;19921;-75
2023/10/06 10:42:37;;;;;;;;;;;22.30;54.10;;;;;;5033307;28;19925;-75
2023/10/06 10:45:22;;;;;;;;;;;22.40;54.20;;;;;;5033557;28;19921;-76
2023/10/06 10:47:51;;;;;;;;;;;22.30;54.10;;;;;;5033393;28;19925;-75
2023/10/06 10:50:18;;;;;;;;;;;22.30;54.10;;;;;;5037086;28;19971;-75
2023/10/06 10:52:46;;;;;;;;;;;22.30;54.10;;;;;;5037486;28;19921;-75
2023/10/06 10:55:13;;;;;;;;;;;22.30;54.10;;;;;;5037474;28;19968;-75
2023/10/06 10:57:44;;;;;;;;;;;22.30;54.10;;;;;;5037357;28;20012;-74
2023/10/06 11:00:14;;;;;;;;;;;22.30;54.10;;;;;;5038262;28;19921;-76
2023/10/06 11:02:41;;;;;;;;;;;22.30;54.10;;;;;;5038061;28;19935;-75
2023/10/06 11:05:09;;;;;;;;;;;22.40;54.20;;;;;;5039469;28;19920;-75
2023/10/06 11:07:36;;;;;;;;;;;22.30;54.20;;;;;;5057916;28;20091;-75
2023/10/06 11:10:05;;;;;;;;;;;22.30;54.20;;;;;;5057102;28;19925;-75
2023/10/06 11:12:34;;;;;;;;;;;22.30;54.20;;;;;;5075213;28;19921;-74
2023/10/06 11:15:13;;;;;;;;;;;22.40;54.30;;;;;;5056803;28;19952;-76
2023/10/06 11:17:41;;;;;;;;;;;22.40;54.30;;;;;;5058179;28;19956;-74
2023/10/06 11:20:13;;;;;;;;;;;22.40;54.30;;;;;;5056833;28;19921;-73
2023/10/06 11:22:40;;;;;;;;;;;22.40;54.30;;;;;;5058509;28;19948;-72
2023/10/06 11:25:10;;;;;;;;;;;22.40;54.30;;;;;;5058215;28;19966;-75
2023/10/06 11:27:41;;;;;;;;;;;22.40;54.40;;;;;;5057723;28;19970;-76
2023/10/06 11:30:08;;;;;;;;;;;22.40;54.30;;;;;;5057381;28;19927;-76
2023/10/06 11:32:35;;;;;;;;;;;22.40;54.40;;;;;;5056963;28;19988;-74
2023/10/06 11:35:02;;;;;;;;;;;22.40;54.40;;;;;;5057098;28;19921;-74
2023/10/06 11:37:29;;;;;;;;;;;22.40;54.50;;;;;;5058194;28;19921;-74
2023/10/06 11:39:57;;;;;;;;;;;22.40;54.40;;;;;;5073969;28;19927;-72
2023/10/06 11:42:29;;;;;;;;;;;22.40;54.50;;;;;;5056444;28;19921;-73
2023/10/06 11:44:57;;;;;;;;;;;22.50;54.50;;;;;;5073585;28;19921;-74
2023/10/06 11:47:36;;;;;;;;;;;22.50;54.60;;;;;;5056611;28;19964;-74
2023/10/06 11:50:04;;;;;;;;;;;22.40;54.50;;;;;;5056429;28;20011;-72
2023/10/06 11:52:32;;;;;;;;;;;22.50;54.60;;;;;;5055913;28;19921;-73
2023/10/06 11:57:46;;;;;;;;;;;22.50;54.60;;;;;;5053918;28;19921;-74
2023/10/06 12:00:13;;;;;;;;;;;22.50;54.60;;;;;;5072517;28;19971;-72
2023/10/06 12:02:46;;;;;;;;;;;22.50;54.70;;;;;;5039661;28;19971;-72
2023/10/06 12:05:14;;;;;;;;;;;22.50;54.70;;;;;;5073281;28;19921;-73
2023/10/06 12:07:41;;;;;;;;;;;22.50;54.70;;;;;;5057251;28;19921;-72
2023/10/06 12:10:08;;;;;;;;;;;22.50;54.70;;;;;;5056363;28;19962;-73
2023/10/06 12:12:35;;;;;;;;;;;22.50;54.70;;;;;;5039660;28;19921;-74
2023/10/06 12:15:04;;;;;;;;;;;22.50;54.70;;;;;;5072505;28;19921;-73
2023/10/06 12:17:31;;;;;;;;;;;22.50;54.70;;;;;;5055953;28;19921;-73
2023/10/06 12:19:58;;;;;;;;;;;22.50;54.70;;;;;;5055749;28;19925;-72
2023/10/06 12:22:27;;;;;;;;;;;22.60;54.80;;;;;;5055797;28;19924;-73
2023/10/06 12:24:53;;;;;;;;;;;22.50;54.70;;;;;;5039141;28;19955;-72
2023/10/06 12:27:20;;;;;;;;;;;22.50;54.70;;;;;;5055838;28;19924;-73
2023/10/06 12:29:48;;;;;;;;;;;22.50;54.70;;;;;;5055491;28;19974;-71
2023/10/06 12:32:16;;;;;;;;;;;22.60;54.80;;;;;;5055311;28;19971;-76
2023/10/06 12:34:43;;;;;;;;;;;22.50;54.70;;;;;;5072370;28;19925;-76
2023/10/06 12:37:11;;;;;;;;;;;22.60;54.80;;;;;;5056913;28;19921;-77
2023/10/06 12:39:38;;;;;;;;;;;22.50;54.70;;;;;;5057506;28;19928;-77
2023/10/06 12:42:05;;;;;;;;;;;22.60;54.80;;;;;;5058031;28;19921;-77
2023/10/06 12:44:39;;;;;;;;;;;22.60;54.80;;;;;;5056624;28;19928;-77
2023/10/06 12:47:10;;;;;;;;;;;22.60;54.80;;;;;;5076263;28;19921;-77
2023/10/06 12:49:42;;;;;;;;;;;22.60;54.80;;;;;;5057420;28;20011;-81
2023/10/06 12:52:09;;;;;;;;;;;22.60;54.70;;;;;;5056398;28;20012;-80
2023/10/06 12:54:36;;;;;;;;;;;22.50;54.70;;;;;;5056547;28;19921;-72
2023/10/06 12:57:04;;;;;;;;;;;22.50;54.70;;;;;;5055296;28;20003;-76
2023/10/06 12:59:32;;;;;;;;;;;22.50;54.70;;;;;;5055548;28;19920;-76
2023/10/06 13:02:03;;;;;;;;;;;22.50;54.70;;;;;;5038708;28;19925;-75
2023/10/06 13:04:30;;;;;;;;;;;22.50;54.70;;;;;;5055498;28;19966;-75
2023/10/06 13:06:59;;;;;;;;;;;22.50;54.70;;;;;;5056498;28;19928;-76
2023/10/06 13:09:27;;;;;;;;;;;22.50;54.80;;;;;;5055845;28;19928;-79
2023/10/06 13:11:54;;;;;;;;;;;22.50;54.80;;;;;;5054091;28;19971;-80
2023/10/06 13:14:21;;;;;;;;;;;22.50;54.80;;;;;;5054937;28;19920;-77
2023/10/06 13:16:48;;;;;;;;;;;22.50;54.80;;;;;;5054849;28;19921;-78
2023/10/06 13:19:14;;;;;;;;;;;22.50;54.80;;;;;;5056490;28;19921;-77
2023/10/06 13:21:42;;;;;;;;;;;22.50;54.80;;;;;;5054965;28;19925;-77
2023/10/06 13:24:12;;;;;;;;;;;22.50;54.80;;;;;;5055614;28;19931;-78
2023/10/06 13:26:41;;;;;;;;;;;22.50;54.90;;;;;;5055981;28;19933;-76
2023/10/06 13:29:08;;;;;;;;;;;22.50;54.80;;;;;;5054537;28;19967;-76
2023/10/06 13:31:36;;;;;;;;;;;22.50;54.90;;;;;;5037812;28;19925;-77
2023/10/06 13:34:03;;;;;;;;;;;22.50;54.90;;;;;;5054459;28;19921;-76
2023/10/06 13:36:30;;;;;;;;;;;22.50;54.90;;;;;;5054382;28;19920;-76
2023/10/06 13:38:57;;;;;;;;;;;22.50;54.90;;;;;;5053690;28;19963;-79
2023/10/06 13:41:26;;;;;;;;;;;22.50;54.90;;;;;;5054452;28;19920;-77
2023/10/06 13:43:54;;;;;;;;;;;22.50;54.90;;;;;;5054756;28;20011;-78
2023/10/06 13:46:20;;;;;;;;;;;22.50;54.90;;;;;;5055789;28;19920;-76
2023/10/06 13:48:47;;;;;;;;;;;22.50;54.90;;;;;;5070762;28;19928;-79
2023/10/06 13:51:15;;;;;;;;;;;22.50;54.90;;;;;;5055384;28;19921;-78
2023/10/06 13:53:43;;;;;;;;;;;22.50;54.90;;;;;;5054763;28;19921;-79
2023/10/06 13:56:10;;;;;;;;;;;22.50;54.90;;;;;;5054578;28;19978;-79
2023/10/06 13:58:38;;;;;;;;;;;22.50;54.90;;;;;;5054681;28;19956;-77
2023/10/06 14:01:09;;;;;;;;;;;22.40;54.80;;;;;;5054158;28;19921;-77
2023/10/06 14:03:35;;;;;;;;;;;22.40;54.80;;;;;;5054507;28;19988;-80
2023/10/06 14:06:03;;;;;;;;;;;22.50;55.00;;;;;;5055688;28;19921;-80
2023/10/06 14:08:29;;;;;;;;;;;22.40;54.90;;;;;;5054912;28;19924;-76
2023/10/06 14:10:56;;;;;;;;;;;22.40;54.90;;;;;;5054864;28;19921;-81
2023/10/06 14:13:25;;;;;;;;;;;22.40;54.90;;;;;;5054294;28;20000;-78
2023/10/06 14:15:58;;;;;;;;;;;22.40;54.90;;;;;;5054284;28;20016;-78
2023/10/06 14:18:25;;;;;;;;;;;22.40;55.50;;;;;;5055277;28;19921;-78
2023/10/06 14:20:53;;;;;;;;;;;22.40;54.90;;;;;;5055463;28;19927;-78
2023/10/06 14:23:23;;;;;;;;;;;22.40;54.90;;;;;;5054311;28;19924;-78
2023/10/06 14:25:52;;;;;;;;;;;22.40;54.90;;;;;;5053514;28;19925;-76
2023/10/06 14:28:22;;;;;;;;;;;22.40;54.90;;;;;;5053362;28;19921;-75
2023/10/06 14:30:51;;;;;;;;;;;22.50;55.00;;;;;;5037043;28;19924;-79